Time;durP1;ratioP1;P1;durP2;ratioP2;P2;SDS_P1;SDS_P2;PMS_P1;PMS_P2;Temp;Humidity;BMP_temperature;BMP_pressure;BME280_temperature;BME280_humidity;BME280_pressure;Samples;Min_cycle;Max_cycle;Signal;HPM_P1;HPM_P2
2022/05/16 00:02:15;;;;;;;2.33;2.17;;;16.80;55.70;;;;;;927961;150;27312;-75
2022/05/16 00:04:41;;;;;;;10.07;3.07;;;16.80;55.90;;;;;;951051;147;27392;-74
2022/05/16 00:07:08;;;;;;;2.27;2.00;;;16.80;56.10;;;;;;950416;147;27439;-75
2022/05/16 00:09:34;;;;;;;2.90;2.00;;;16.80;56.20;;;;;;950855;147;27448;-76
2022/05/16 00:12:01;;;;;;;2.70;2.30;;;16.70;56.20;;;;;;949601;147;27269;-75
2022/05/16 00:14:28;;;;;;;2.40;2.20;;;16.70;56.30;;;;;;951043;147;27411;-75
2022/05/16 00:16:54;;;;;;;3.27;2.63;;;16.60;56.50;;;;;;950343;147;27315;-74
2022/05/16 00:19:21;;;;;;;2.40;2.20;;;16.60;56.70;;;;;;950425;147;27353;-75
2022/05/16 00:21:47;;;;;;;2.23;1.83;;;16.50;57.00;;;;;;921416;150;27383;-75
2022/05/16 00:24:14;;;;;;;2.33;2.13;;;16.50;57.00;;;;;;950232;147;28018;-75
2022/05/16 00:26:41;;;;;;;2.60;2.17;;;16.40;57.00;;;;;;933478;150;27318;-75
2022/05/16 00:29:07;;;;;;;2.50;2.30;;;16.40;57.10;;;;;;945285;149;27344;-75
2022/05/16 00:31:34;;;;;;;2.57;2.00;;;16.40;57.20;;;;;;944058;149;27357;-75
2022/05/16 00:34:00;;;;;;;2.27;2.00;;;16.30;57.30;;;;;;954492;149;27347;-75
2022/05/16 00:36:27;;;;;;;2.23;2.10;;;16.20;57.30;;;;;;965007;146;27392;-75
2022/05/16 00:38:56;;;;;;;2.17;1.97;;;16.20;57.40;;;;;;947233;149;27385;-75
2022/05/16 00:41:23;;;;;;;2.40;2.20;;;16.10;57.50;;;;;;965224;146;27350;-75
2022/05/16 00:43:58;;;;;;;2.60;2.13;;;16.10;57.60;;;;;;965176;146;27338;-75
2022/05/16 00:46:25;;;;;;;2.33;2.07;;;16.10;57.80;;;;;;943904;149;28377;-75
2022/05/16 00:48:51;;;;;;;2.93;2.60;;;16.00;57.80;;;;;;957320;148;27292;-75
2022/05/16 00:51:23;;;;;;;2.93;2.60;;;16.00;58.10;;;;;;947546;149;27348;-75
2022/05/16 00:53:50;;;;;;;3.60;2.30;;;15.90;58.20;;;;;;965800;145;27372;-75
2022/05/16 00:56:17;;;;;;;4.07;2.40;;;15.90;58.20;;;;;;946973;149;27364;-75
2022/05/16 00:58:43;;;;;;;2.47;2.27;;;15.80;58.30;;;;;;965263;146;27343;-75
2022/05/16 01:04:47;;;;;;;3.00;2.23;;;15.80;58.40;;;;;;964826;146;27336;-75
2022/05/16 01:06:21;;;;;;;3.10;2.43;;;15.70;58.70;;;;;;947489;149;27313;-75
2022/05/16 01:08:47;;;;;;;2.70;2.50;;;15.70;58.60;;;;;;942261;148;27497;-75
2022/05/16 01:11:14;;;;;;;3.20;2.90;;;15.70;58.80;;;;;;947067;149;27398;-75
2022/05/16 01:13:41;;;;;;;2.67;2.23;;;15.60;59.00;;;;;;947146;148;27441;-75
2022/05/16 01:16:07;;;;;;;2.90;2.30;;;15.60;59.00;;;;;;964282;146;27318;-75
2022/05/16 01:18:34;;;;;;;5.50;2.67;;;15.60;59.10;;;;;;958218;149;27332;-75
2022/05/16 01:21:16;;;;;;;3.10;2.50;;;15.60;59.20;;;;;;957243;148;27351;-75
2022/05/16 01:23:42;;;;;;;3.77;2.77;;;15.60;59.30;;;;;;956107;149;27770;-75
2022/05/16 01:26:09;;;;;;;2.60;2.40;;;15.50;59.30;;;;;;947388;149;27387;-75
2022/05/16 01:28:35;;;;;;;3.80;2.60;;;15.50;59.30;;;;;;940421;149;27473;-75
2022/05/16 01:31:02;;;;;;;2.20;2.10;;;15.50;60.20;;;;;;949766;146;27410;-75
2022/05/16 01:33:29;;;;;;;4.90;2.53;;;15.50;59.10;;;;;;949873;146;27427;-75
2022/05/16 01:35:55;;;;;;;3.33;2.77;;;15.50;59.80;;;;;;949486;146;27354;-76
2022/05/16 01:38:22;;;;;;;3.93;2.63;;;15.50;59.90;;;;;;948910;146;27315;-75
2022/05/16 01:40:48;;;;;;;3.73;2.13;;;15.40;59.90;;;;;;948864;146;27327;-75
2022/05/16 01:43:15;;;;;;;4.00;3.03;;;15.40;59.90;;;;;;946675;146;27388;-75
2022/05/16 01:45:44;;;;;;;2.63;2.30;;;15.40;60.10;;;;;;949428;146;27326;-75
2022/05/16 01:48:11;;;;;;;2.93;2.60;;;15.40;60.10;;;;;;950982;146;27448;-75
2022/05/16 01:50:37;;;;;;;3.27;2.80;;;15.40;60.30;;;;;;949310;146;27299;-75
2022/05/16 01:53:04;;;;;;;3.20;2.83;;;15.40;60.50;;;;;;949614;146;27449;-75
2022/05/16 01:55:30;;;;;;;3.20;2.80;;;15.40;60.70;;;;;;949865;146;27381;-75
2022/05/16 01:57:57;;;;;;;2.97;2.73;;;15.40;60.80;;;;;;949991;146;27411;-75
2022/05/16 02:00:24;;;;;;;2.57;2.40;;;15.40;60.80;;;;;;950594;146;27427;-75
2022/05/16 02:02:50;;;;;;;3.67;2.60;;;15.40;60.70;;;;;;950327;146;28750;-74
2022/05/16 02:05:20;;;;;;;3.13;2.83;;;15.40;61.10;;;;;;949265;146;27851;-74
2022/05/16 02:07:46;;;;;;;3.40;2.50;;;15.40;61.20;;;;;;949922;146;27385;-74
2022/05/16 02:10:13;;;;;;;3.83;2.60;;;15.40;61.20;;;;;;950045;146;27339;-74
2022/05/16 02:12:39;;;;;;;2.90;2.50;;;15.40;61.20;;;;;;950233;146;27427;-74
2022/05/16 02:15:06;;;;;;;2.70;2.50;;;15.40;61.20;;;;;;949757;146;27311;-74
2022/05/16 02:17:33;;;;;;;2.40;2.20;;;15.40;61.40;;;;;;949745;146;27236;-73
2022/05/16 02:19:59;;;;;;;2.73;2.50;;;15.40;61.50;;;;;;950355;146;27396;-73
2022/05/16 02:25:10;;;;;;;3.60;2.37;;;15.40;61.60;;;;;;949888;146;27346;-73
2022/05/16 02:27:37;;;;;;;3.27;2.60;;;15.40;61.40;;;;;;949796;146;27291;-73
2022/05/16 02:30:03;;;;;;;3.07;2.40;;;15.40;61.60;;;;;;950320;146;27304;-73
2022/05/16 02:32:30;;;;;;;2.40;2.20;;;15.40;61.70;;;;;;934001;150;27413;-73
2022/05/16 02:34:56;;;;;;;3.13;2.83;;;15.30;61.70;;;;;;926820;151;27869;-73
2022/05/16 02:37:23;;;;;;;4.20;2.53;;;15.40;61.80;;;;;;950814;147;27353;-73
2022/05/16 02:39:50;;;;;;;3.50;2.10;;;15.40;62.00;;;;;;950257;147;27343;-73
2022/05/16 02:42:16;;;;;;;2.57;2.37;;;15.40;61.90;;;;;;950347;147;27307;-73
2022/05/16 02:44:43;;;;;;;2.73;2.53;;;15.40;62.00;;;;;;949670;146;27344;-73
2022/05/16 02:47:12;;;;;;;10.37;2.60;;;15.40;62.00;;;;;;935060;150;27360;-73
2022/05/16 02:49:39;;;;;;;3.23;2.57;;;15.40;62.00;;;;;;921804;150;27511;-74
2022/05/16 02:52:05;;;;;;;3.10;2.60;;;15.40;62.10;;;;;;938017;149;28850;-74
2022/05/16 02:54:32;;;;;;;2.93;2.70;;;15.40;62.10;;;;;;935854;149;27285;-74
2022/05/16 02:56:59;;;;;;;3.30;2.40;;;15.40;62.30;;;;;;935144;150;27313;-74
2022/05/16 02:59:32;;;;;;;3.07;2.50;;;15.40;62.20;;;;;;934314;150;27368;-74
2022/05/16 03:01:54;;;;;;;3.13;2.30;;;15.50;62.40;;;;;;949059;147;27330;-74
2022/05/16 03:04:21;;;;;;;2.87;2.23;;;15.50;62.50;;;;;;941073;149;27327;-74
2022/05/16 03:06:48;;;;;;;2.27;2.07;;;15.50;62.40;;;;;;940736;149;27426;-74
2022/05/16 03:09:14;;;;;;;2.43;2.03;;;15.50;62.30;;;;;;935496;150;27346;-74
2022/05/16 03:11:41;;;;;;;2.60;2.40;;;15.50;62.30;;;;;;928051;150;27718;-74
2022/05/16 03:14:07;;;;;;;1.97;1.87;;;15.60;62.50;;;;;;951907;147;27441;-74
2022/05/16 03:16:35;;;;;;;2.87;2.20;;;15.60;62.30;;;;;;950219;147;27351;-74
2022/05/16 03:19:00;;;;;;;3.00;2.30;;;15.60;62.50;;;;;;950378;147;27305;-74
2022/05/16 03:21:27;;;;;;;3.60;2.30;;;15.60;62.60;;;;;;951184;147;27424;-74
2022/05/16 03:23:54;;;;;;;2.27;2.07;;;15.60;62.60;;;;;;951313;147;27328;-74
2022/05/16 03:26:20;;;;;;;2.40;2.20;;;15.60;62.60;;;;;;949903;147;27366;-74
2022/05/16 03:28:47;;;;;;;3.33;2.67;;;15.70;62.80;;;;;;950558;147;27436;-74
2022/05/16 03:31:13;;;;;;;2.83;2.47;;;15.70;62.80;;;;;;933807;150;27501;-74
2022/05/16 03:33:40;;;;;;;2.67;2.27;;;15.80;62.80;;;;;;949478;146;27319;-74
2022/05/16 03:36:07;;;;;;;2.37;2.17;;;15.80;62.80;;;;;;937377;150;27307;-74
2022/05/16 03:41:18;;;;;;;3.80;2.53;;;16.00;62.80;;;;;;950846;147;27349;-74
2022/05/16 03:43:45;;;;;;;3.37;2.70;;;16.10;62.80;;;;;;926861;149;27353;-74
2022/05/16 03:46:11;;;;;;;2.80;2.40;;;16.10;62.70;;;;;;927733;150;27366;-74
2022/05/16 03:48:37;;;;;;;4.23;2.50;;;16.20;62.60;;;;;;950908;147;27333;-74
2022/05/16 03:51:04;;;;;;;4.17;3.00;;;16.30;62.60;;;;;;949814;146;27418;-74
2022/05/16 03:53:31;;;;;;;2.63;2.43;;;16.30;62.60;;;;;;949355;146;27448;-74
2022/05/16 03:55:57;;;;;;;3.83;2.47;;;16.40;62.60;;;;;;949939;146;27412;-74
2022/05/16 03:58:24;;;;;;;5.00;2.73;;;16.50;62.60;;;;;;949514;146;27311;-74
2022/05/16 04:00:50;;;;;;;4.03;2.50;;;16.50;62.50;;;;;;927727;149;27322;-74
2022/05/16 04:03:17;;;;;;;3.80;2.60;;;16.60;62.60;;;;;;950400;147;28418;-74
2022/05/16 04:05:43;;;;;;;4.60;2.57;;;16.70;62.60;;;;;;937582;148;27914;-75
2022/05/16 04:08:10;;;;;;;3.07;2.77;;;16.80;62.50;;;;;;924191;149;27374;-74
2022/05/16 04:10:37;;;;;;;2.73;2.53;;;16.80;62.40;;;;;;935341;149;27298;-75
2022/05/16 04:13:03;;;;;;;3.77;2.90;;;16.90;62.50;;;;;;950403;147;27266;-75
2022/05/16 04:15:31;;;;;;;2.80;2.43;;;17.00;62.60;;;;;;951299;147;27366;-74
2022/05/16 04:17:57;;;;;;;5.22;2.60;;;17.10;62.50;;;;;;951149;147;27339;-74
2022/05/16 04:20:23;;;;;;;3.08;2.72;;;17.20;62.50;;;;;;950566;147;27341;-74
2022/05/16 04:22:50;;;;;;;3.08;2.45;;;17.30;62.30;;;;;;950304;147;27424;-74
2022/05/16 04:25:16;;;;;;;2.42;2.22;;;17.40;62.20;;;;;;951051;147;27319;-74
2022/05/16 04:27:43;;;;;;;2.58;2.33;;;17.40;61.90;;;;;;950257;147;27604;-74
2022/05/16 04:30:09;;;;;;;3.70;2.40;;;17.50;61.70;;;;;;952889;145;27410;-74
2022/05/16 04:32:36;;;;;;;2.72;2.22;;;17.60;61.60;;;;;;969540;145;27313;-75
2022/05/16 04:35:03;;;;;;;3.07;2.47;;;17.70;61.40;;;;;;970919;145;27337;-74
2022/05/16 04:37:32;;;;;;;3.33;2.40;;;17.70;61.40;;;;;;950126;148;27667;-74
2022/05/16 04:40:01;;;;;;;3.60;2.53;;;17.80;61.20;;;;;;948310;148;27286;-74
2022/05/16 04:42:46;;;;;;;2.37;2.17;;;17.90;61.00;;;;;;961172;148;27342;-74
2022/05/16 04:45:27;;;;;;;2.52;2.33;;;17.90;61.00;;;;;;959393;148;27488;-74
2022/05/16 04:47:56;;;;;;;5.60;2.58;;;18.00;60.80;;;;;;961815;148;27314;-75
2022/05/16 04:50:23;;;;;;;2.55;2.15;;;18.00;60.70;;;;;;959838;148;27295;-74
2022/05/16 04:52:50;;;;;;;3.40;2.30;;;18.10;61.30;;;;;;953476;147;27388;-74
2022/05/16 04:55:16;;;;;;;2.87;2.40;;;18.10;60.70;;;;;;946369;148;28030;-75
2022/05/16 04:57:43;;;;;;;3.33;2.52;;;18.20;61.00;;;;;;951949;148;27331;-74
2022/05/16 05:00:10;;;;;;;2.58;2.25;;;18.30;60.70;;;;;;950957;148;27869;-74
2022/05/16 05:02:36;;;;;;;3.98;2.40;;;18.30;60.60;;;;;;969017;145;27278;-74
2022/05/16 05:05:03;;;;;;;6.50;3.20;;;18.40;60.60;;;;;;969694;145;27391;-75
2022/05/16 05:07:29;;;;;;;2.90;2.42;;;18.50;60.60;;;;;;967937;145;27381;-75
2022/05/16 05:15:25;;;;;;;4.15;2.50;;;18.70;60.60;;;;;;951921;148;27264;-75
2022/05/16 05:17:52;;;;;;;2.83;2.30;;;18.80;60.60;;;;;;955420;147;27375;-75
2022/05/16 05:20:18;;;;;;;4.20;3.00;;;18.90;60.50;;;;;;953479;148;27354;-75
2022/05/16 05:22:45;;;;;;;2.87;2.55;;;19.00;60.40;;;;;;951833;148;27356;-74
2022/05/16 05:25:11;;;;;;;3.05;2.60;;;19.20;60.40;;;;;;954187;147;27298;-75
2022/05/16 05:27:38;;;;;;;3.05;2.33;;;19.30;60.40;;;;;;950862;148;27328;-75
2022/05/16 05:30:05;;;;;;;3.77;2.27;;;19.50;60.50;;;;;;955088;147;27659;-75
2022/05/16 05:32:31;;;;;;;2.70;2.50;;;19.70;60.40;;;;;;947873;148;27356;-75
2022/05/16 05:34:58;;;;;;;2.80;2.40;;;20.00;60.70;;;;;;934262;148;27399;-75
2022/05/16 05:37:24;;;;;;;2.72;2.33;;;20.40;60.80;;;;;;945730;149;27360;-75
2022/05/16 05:39:52;;;;;;;4.72;3.02;;;20.70;60.30;;;;;;964893;146;27412;-75
2022/05/16 05:42:18;;;;;;;4.83;2.45;;;21.00;59.60;;;;;;965733;146;27270;-75
2022/05/16 05:44:44;;;;;;;3.47;2.33;;;21.40;59.00;;;;;;967579;145;27325;-75
2022/05/16 05:47:11;;;;;;;3.50;2.87;;;21.60;58.50;;;;;;966430;145;27786;-75
2022/05/16 05:49:37;;;;;;;2.98;2.40;;;21.80;58.00;;;;;;947642;148;27378;-75
2022/05/16 05:52:04;;;;;;;3.67;2.75;;;22.10;57.30;;;;;;946701;149;27304;-75
2022/05/16 05:54:31;;;;;;;3.05;2.22;;;22.40;57.80;;;;;;949040;149;27418;-75
2022/05/16 05:56:57;;;;;;;4.55;2.60;;;22.70;58.00;;;;;;967536;145;27403;-75
2022/05/16 05:59:24;;;;;;;2.12;1.87;;;23.20;58.10;;;;;;939694;148;27333;-76
2022/05/16 06:01:50;;;;;;;2.08;1.87;;;23.70;58.20;;;;;;967405;145;27342;-76
2022/05/16 06:04:17;;;;;;;3.98;2.17;;;24.50;58.10;;;;;;935367;148;28177;-76
2022/05/16 06:06:46;;;;;;;4.35;2.50;;;25.20;57.60;;;;;;948380;148;27388;-76
2022/05/16 06:09:10;;;;;;;2.77;2.12;;;26.00;56.50;;;;;;949045;149;27392;-76
2022/05/16 06:11:37;;;;;;;3.42;2.08;;;26.60;54.90;;;;;;964830;146;27409;-76
2022/05/16 06:14:03;;;;;;;3.55;2.30;;;27.10;53.30;;;;;;965579;146;27325;-74
2022/05/16 06:16:30;;;;;;;4.08;2.00;;;27.40;51.80;;;;;;945472;149;27501;-78
2022/05/16 06:18:56;;;;;;;4.33;2.00;;;27.60;51.00;;;;;;965222;146;27727;-77
2022/05/16 06:21:23;;;;;;;3.42;1.95;;;27.70;50.30;;;;;;947192;149;27487;-76
2022/05/16 06:23:50;;;;;;;2.52;2.17;;;27.80;50.20;;;;;;947256;148;27272;-76
2022/05/16 06:26:16;;;;;;;3.15;2.17;;;27.80;50.00;;;;;;947015;149;27438;-76
2022/05/16 06:28:43;;;;;;;3.42;2.30;;;27.90;50.00;;;;;;965166;146;27400;-77
2022/05/16 06:31:09;;;;;;;2.92;2.15;;;28.00;49.80;;;;;;964868;146;27360;-77
2022/05/16 06:33:36;;;;;;;4.03;2.27;;;28.00;49.30;;;;;;942655;149;27626;-77
2022/05/16 06:36:03;;;;;;;3.22;2.12;;;28.10;48.80;;;;;;959363;148;27762;-76
2022/05/16 06:38:29;;;;;;;3.75;1.82;;;28.00;48.20;;;;;;959169;148;27366;-76
2022/05/16 06:40:56;;;;;;;3.72;2.47;;;27.90;47.80;;;;;;953717;148;27448;-77
2022/05/16 06:43:22;;;;;;;3.95;2.20;;;27.70;47.60;;;;;;953196;149;27342;-77
2022/05/16 06:45:49;;;;;;;3.92;2.30;;;27.40;47.40;;;;;;954883;149;27305;-77
2022/05/16 06:48:15;;;;;;;2.83;1.82;;;27.20;47.40;;;;;;954602;149;27313;-77
2022/05/16 06:50:42;;;;;;;2.08;1.85;;;27.00;47.40;;;;;;953492;149;27318;-76
2022/05/16 06:53:09;;;;;;;2.52;2.00;;;26.70;47.50;;;;;;953058;149;27459;-74
2022/05/16 06:55:35;;;;;;;3.40;2.12;;;26.50;47.70;;;;;;954352;149;27320;-77
2022/05/16 06:58:02;;;;;;;2.47;2.10;;;26.20;47.70;;;;;;953377;149;27296;-76
2022/05/16 07:00:29;;;;;;;3.25;2.10;;;25.90;47.80;;;;;;952998;149;27478;-77
2022/05/16 07:02:55;;;;;;;2.45;2.25;;;25.70;48.20;;;;;;953787;149;27336;-77
2022/05/16 07:05:22;;;;;;;3.47;2.02;;;25.50;48.50;;;;;;955037;149;27398;-76
2022/05/16 07:07:48;;;;;;;3.30;2.15;;;25.30;48.80;;;;;;954714;149;27355;-77
2022/05/16 07:10:15;;;;;;;7.58;2.25;;;25.20;49.10;;;;;;954315;149;27380;-77
2022/05/16 07:12:42;;;;;;;2.70;2.17;;;25.10;49.30;;;;;;953656;149;27373;-76
2022/05/16 07:15:08;;;;;;;3.15;2.50;;;25.10;49.60;;;;;;947254;148;27284;-77
2022/05/16 07:17:35;;;;;;;3.70;2.40;;;25.00;49.80;;;;;;948675;148;27313;-76
2022/05/16 07:20:02;;;;;;;3.15;2.20;;;25.00;50.00;;;;;;964743;146;27427;-76
2022/05/16 07:22:28;;;;;;;2.35;2.10;;;25.00;50.00;;;;;;964852;146;27336;-76
2022/05/16 07:24:56;;;;;;;2.10;1.90;;;25.00;50.00;;;;;;946675;149;27360;-76
2022/05/16 07:30:06;;;;;;;3.62;2.20;;;25.00;50.00;;;;;;964348;146;27396;-77
2022/05/16 07:32:35;;;;;;;3.42;2.17;;;25.00;50.00;;;;;;948965;148;27374;-76
2022/05/16 07:35:02;;;;;;;2.30;2.10;;;25.00;50.20;;;;;;951439;148;27368;-76
2022/05/16 07:37:29;;;;;;;3.25;2.20;;;25.00;50.40;;;;;;967535;145;27306;-76
2022/05/16 07:39:55;;;;;;;2.50;2.00;;;24.90;50.50;;;;;;969451;145;27309;-76
2022/05/16 07:42:22;;;;;;;2.52;2.10;;;24.90;50.60;;;;;;969670;145;27284;-76
2022/05/16 07:44:50;;;;;;;2.35;2.12;;;24.90;50.60;;;;;;969159;145;27425;-76
2022/05/16 07:47:15;;;;;;;2.50;2.30;;;24.90;50.90;;;;;;951809;148;27361;-76
2022/05/16 07:49:41;;;;;;;2.92;1.98;;;24.90;50.90;;;;;;960979;146;27373;-76
2022/05/16 07:52:09;;;;;;;2.42;2.12;;;24.80;50.20;;;;;;952142;148;27848;-76
2022/05/16 07:54:34;;;;;;;3.20;2.02;;;24.70;50.70;;;;;;969340;145;27283;-76
2022/05/16 07:57:03;;;;;;;3.15;1.87;;;24.70;50.80;;;;;;969703;145;27401;-76
2022/05/16 07:59:28;;;;;;;3.87;2.22;;;24.70;51.00;;;;;;951858;148;27356;-76
2022/05/16 08:01:54;;;;;;;2.95;2.12;;;24.60;51.10;;;;;;940492;148;27380;-77
2022/05/16 08:04:21;;;;;;;2.92;2.10;;;24.60;51.30;;;;;;950141;148;27411;-77
2022/05/16 08:06:47;;;;;;;2.70;2.40;;;24.60;51.50;;;;;;952647;147;27401;-77
2022/05/16 08:11:59;;;;;;;2.62;2.08;;;24.70;51.80;;;;;;955483;147;27561;-76
2022/05/16 08:14:26;;;;;;;4.97;2.67;;;24.80;51.80;;;;;;970384;145;27288;-76
2022/05/16 08:16:52;;;;;;;3.70;2.08;;;24.90;51.90;;;;;;951967;148;27463;-76
2022/05/16 08:19:19;;;;;;;4.10;2.22;;;25.10;51.90;;;;;;968682;145;27428;-76
2022/05/16 08:21:48;;;;;;;3.45;2.20;;;25.20;51.90;;;;;;969816;145;27293;-77
2022/05/16 08:24:12;;;;;;;2.00;1.77;;;25.40;51.80;;;;;;970159;145;27271;-76
2022/05/16 08:26:39;;;;;;;3.75;2.17;;;25.60;51.60;;;;;;970584;145;27287;-76
2022/05/16 08:29:05;;;;;;;2.80;2.10;;;25.70;51.40;;;;;;970689;145;27760;-76
2022/05/16 08:31:32;;;;;;;2.20;1.70;;;26.00;51.60;;;;;;970211;145;28069;-77
2022/05/16 08:33:59;;;;;;;2.42;1.82;;;26.40;52.30;;;;;;971043;145;27354;-76
2022/05/16 08:41:55;;;;;;;2.65;1.67;;;28.10;51.60;;;;;;970899;145;27370;-76
2022/05/16 08:44:28;;;;;;;3.02;2.05;;;28.60;50.40;;;;;;970036;145;27396;-76
2022/05/16 08:47:13;;;;;;;5.00;2.00;;;29.00;49.60;;;;;;968613;145;27338;-76
2022/05/16 08:49:39;;;;;;;3.98;2.05;;;29.20;48.90;;;;;;970203;145;28015;-76
2022/05/16 08:52:12;;;;;;;3.77;1.80;;;29.40;48.60;;;;;;945357;148;27428;-76
2022/05/16 08:54:42;;;;;;;3.35;1.87;;;29.50;48.20;;;;;;949881;145;27420;-76
2022/05/16 08:57:07;;;;;;;2.00;1.77;;;29.60;47.70;;;;;;965477;145;27347;-76
2022/05/16 08:59:34;;;;;;;2.02;1.65;;;29.60;47.30;;;;;;961826;148;27326;-76
2022/05/16 09:02:09;;;;;;;3.10;1.80;;;29.70;47.00;;;;;;950882;148;27367;-76
2022/05/16 09:04:36;;;;;;;2.25;2.00;;;29.60;47.00;;;;;;967575;145;28055;-76
2022/05/16 09:07:04;;;;;;;2.47;1.80;;;29.60;47.00;;;;;;968358;145;27283;-76
2022/05/16 09:09:59;;;;;;;3.25;2.00;;;29.60;46.90;;;;;;967813;145;27401;-76
2022/05/16 09:12:28;;;;;;;3.92;1.80;;;29.60;46.90;;;;;;967944;145;27314;-76
2022/05/16 09:15:26;;;;;;;2.27;1.82;;;29.70;47.10;;;;;;968480;145;27394;-77
2022/05/16 09:18:10;;;;;;;2.35;1.87;;;29.90;47.90;;;;;;949282;148;27255;-76
2022/05/16 09:20:51;;;;;;;3.95;1.65;;;30.50;48.60;;;;;;948648;148;27358;-77
2022/05/16 09:23:27;;;;;;;1.72;1.50;;;31.30;48.90;;;;;;969591;145;27348;-77
2022/05/16 09:26:21;;;;;;;2.67;1.90;;;32.20;49.00;;;;;;948851;148;26267;-77
2022/05/16 09:28:47;;;;;;;2.25;1.60;;;33.20;48.30;;;;;;961491;148;26263;-77
2022/05/16 09:31:32;;;;;;;2.62;1.77;;;34.30;47.50;;;;;;960657;148;26274;-77
2022/05/16 09:33:59;;;;;;;1.75;1.60;;;35.10;46.10;;;;;;951443;148;27304;-77
2022/05/16 09:36:25;;;;;;;2.17;1.72;;;36.00;45.10;;;;;;948423;148;26240;-77
2022/05/16 09:38:52;;;;;;;3.45;1.90;;;36.80;44.00;;;;;;967649;145;26335;-77
2022/05/16 09:41:21;;;;;;;3.52;1.80;;;37.40;42.90;;;;;;952257;148;26354;-77
2022/05/16 09:43:56;;;;;;;2.15;1.55;;;38.00;41.90;;;;;;951220;148;26344;-77
2022/05/16 09:46:20;;;;;;;3.30;1.80;;;38.40;41.00;;;;;;965993;145;26388;-77
2022/05/16 09:48:47;;;;;;;1.67;1.37;;;38.80;40.10;;;;;;949806;148;26324;-77
2022/05/16 09:51:15;;;;;;;2.02;1.80;;;39.10;39.60;;;;;;949052;148;26319;-77
2022/05/16 09:53:42;;;;;;;2.02;1.75;;;39.30;38.90;;;;;;951417;148;26359;-77
2022/05/16 09:56:09;;;;;;;3.47;2.00;;;39.50;38.30;;;;;;952710;147;26316;-77
2022/05/16 09:58:39;;;;;;;2.47;1.62;;;39.60;37.60;;;;;;950843;148;26230;-77
2022/05/16 10:01:06;;;;;;;2.37;2.10;;;39.60;37.40;;;;;;945500;148;26246;-77
2022/05/16 10:03:35;;;;;;;4.83;2.30;;;39.50;36.70;;;;;;939076;148;26286;-77
2022/05/16 10:06:05;;;;;;;2.55;1.60;;;39.40;36.30;;;;;;959099;147;26348;-77
2022/05/16 10:08:37;;;;;;;2.15;2.00;;;39.20;36.20;;;;;;952906;148;27456;-77
2022/05/16 10:11:03;;;;;;;2.10;1.90;;;39.10;36.20;;;;;;969786;145;26232;-77
2022/05/16 10:13:30;;;;;;;2.05;1.77;;;38.90;36.20;;;;;;967976;145;26225;-77
2022/05/16 10:15:57;;;;;;;2.40;2.20;;;38.80;36.10;;;;;;952035;148;26357;-77
2022/05/16 10:18:23;;;;;;;2.02;1.82;;;38.70;35.90;;;;;;953211;148;26267;-77
2022/05/16 10:20:50;;;;;;;3.15;2.17;;;38.60;35.90;;;;;;966867;145;27384;-77
2022/05/16 10:23:19;;;;;;;4.75;2.00;;;38.40;35.50;;;;;;947078;148;26236;-77
2022/05/16 10:25:46;;;;;;;3.30;2.20;;;38.20;35.50;;;;;;947638;148;27349;-77
2022/05/16 10:28:12;;;;;;;2.60;2.20;;;38.00;35.50;;;;;;957353;147;27357;-77
2022/05/16 10:35:50;;;;;;;2.87;2.02;;;37.30;35.40;;;;;;951919;148;27415;-76
2022/05/16 10:38:24;;;;;;;2.25;1.95;;;37.10;35.70;;;;;;953166;147;27441;-77
2022/05/16 10:40:50;;;;;;;2.83;2.02;;;36.80;35.70;;;;;;951542;146;27445;-77
2022/05/16 10:43:29;;;;;;;4.42;2.35;;;36.60;35.70;;;;;;958896;148;27774;-77
2022/05/16 10:45:55;;;;;;;3.05;2.15;;;36.30;36.00;;;;;;968667;145;27403;-77
2022/05/16 10:48:24;;;;;;;4.20;2.25;;;36.10;36.10;;;;;;949196;148;27398;-77
2022/05/16 10:50:48;;;;;;;2.65;2.40;;;35.80;36.20;;;;;;968487;145;27391;-77
2022/05/16 10:53:15;;;;;;;2.95;2.20;;;35.70;36.80;;;;;;966221;145;27319;-77
2022/05/16 10:55:50;;;;;;;2.37;2.20;;;35.50;36.50;;;;;;968517;145;27337;-77
2022/05/16 10:58:23;;;;;;;4.55;2.22;;;35.50;37.40;;;;;;967233;145;27311;-77
2022/05/16 11:01:11;;;;;;;3.90;2.55;;;35.40;37.30;;;;;;966839;145;27310;-77
2022/05/16 11:03:45;;;;;;;3.45;2.58;;;35.40;37.30;;;;;;969202;145;27367;-77
2022/05/16 11:06:21;;;;;;;3.37;2.22;;;35.30;37.00;;;;;;944340;145;28088;-77
2022/05/16 11:08:53;;;;;;;4.97;2.22;;;35.20;37.30;;;;;;952089;148;27374;-77
2022/05/16 11:11:41;;;;;;;3.08;2.67;;;35.10;37.40;;;;;;950845;148;27433;-77
2022/05/16 11:14:20;;;;;;;2.52;2.00;;;35.00;37.40;;;;;;951218;148;27343;-77
2022/05/16 11:16:50;;;;;;;2.60;2.17;;;35.00;37.60;;;;;;951540;148;27448;-77
2022/05/16 11:19:32;;;;;;;4.33;2.25;;;34.90;37.50;;;;;;950720;148;27389;-77
2022/05/16 11:22:07;;;;;;;2.35;2.12;;;34.90;37.60;;;;;;967868;145;27343;-77
2022/05/16 11:24:46;;;;;;;2.00;1.82;;;34.80;37.60;;;;;;950947;148;27357;-77
2022/05/16 11:27:12;;;;;;;4.53;2.62;;;34.70;37.60;;;;;;950665;148;27320;-77
2022/05/16 11:30:03;;;;;;;3.25;2.83;;;34.60;37.60;;;;;;949278;148;27340;-77
2022/05/16 11:32:45;;;;;;;2.50;2.30;;;34.50;37.90;;;;;;952679;148;27349;-77
2022/05/16 11:35:36;;;;;;;6.25;2.70;;;34.50;38.00;;;;;;951174;148;27343;-77
2022/05/16 11:38:11;;;;;;;5.08;2.17;;;34.40;38.10;;;;;;963497;146;27292;-77
2022/05/16 11:40:37;;;;;;;4.03;2.37;;;34.50;38.40;;;;;;946995;148;27462;-77
2022/05/16 11:43:14;;;;;;;3.10;2.10;;;34.50;38.30;;;;;;945359;149;27386;-77
2022/05/16 11:46:01;;;;;;;2.70;2.50;;;34.50;38.40;;;;;;951759;148;27385;-77
2022/05/16 11:48:27;;;;;;;4.30;2.40;;;34.60;38.30;;;;;;958570;146;27292;-77
2022/05/16 11:51:13;;;;;;;5.50;2.17;;;34.60;38.20;;;;;;965114;146;27277;-77
2022/05/16 11:53:47;;;;;;;4.47;2.37;;;34.60;38.00;;;;;;947122;149;27353;-77
2022/05/16 12:01:39;;;;;;;3.45;2.40;;;34.50;37.80;;;;;;963658;146;27350;-77
2022/05/16 12:04:14;;;;;;;2.50;2.20;;;34.30;37.70;;;;;;947614;148;27348;-77
2022/05/16 12:06:43;;;;;;;3.77;2.45;;;34.20;38.00;;;;;;944124;149;27457;-77
2022/05/16 12:09:19;;;;;;;2.95;2.22;;;33.90;38.00;;;;;;947675;149;27372;-77
2022/05/16 12:11:51;;;;;;;3.12;2.60;;;33.80;38.30;;;;;;947360;148;27338;-77
2022/05/16 12:14:32;;;;;;;2.90;2.27;;;33.60;38.60;;;;;;946343;148;27304;-77
2022/05/16 12:17:07;;;;;;;4.15;2.33;;;33.50;38.90;;;;;;943127;149;27387;-77
2022/05/16 12:19:32;;;;;;;4.05;2.50;;;33.50;39.10;;;;;;951050;148;27485;-76
2022/05/16 12:22:07;;;;;;;4.15;2.25;;;33.50;39.40;;;;;;964780;146;27241;-77
2022/05/16 12:24:42;;;;;;;4.05;2.42;;;33.50;39.60;;;;;;947214;148;27270;-76
2022/05/16 12:27:12;;;;;;;5.58;2.52;;;33.50;39.50;;;;;;947495;149;27343;-77
2022/05/16 12:29:38;;;;;;;6.12;2.50;;;33.50;39.40;;;;;;962785;146;27416;-77
2022/05/16 12:32:04;;;;;;;5.08;2.40;;;33.50;39.30;;;;;;962467;146;27315;-77
2022/05/16 12:34:35;;;;;;;6.17;2.60;;;33.50;39.40;;;;;;947143;148;27361;-77
2022/05/16 12:36:57;;;;;;;3.33;2.27;;;33.50;39.30;;;;;;940633;148;27430;-77
2022/05/16 12:42:14;;;;;;;2.65;2.10;;;33.40;39.30;;;;;;972831;145;37308;-77
2022/05/16 12:44:47;;;;;;;2.20;2.00;;;33.30;39.60;;;;;;939969;148;27273;-76
2022/05/16 12:47:34;;;;;;;4.20;2.37;;;33.30;39.70;;;;;;949466;148;27340;-76
2022/05/16 12:50:09;;;;;;;3.55;1.90;;;33.30;39.80;;;;;;948789;148;27434;-76
2022/05/16 12:53:06;;;;;;;3.80;2.10;;;33.20;39.60;;;;;;932676;146;27384;-76
2022/05/16 12:56:01;;;;;;;3.37;2.00;;;33.10;39.70;;;;;;948236;149;27335;-76
2022/05/16 12:58:30;;;;;;;6.47;2.00;;;33.00;39.80;;;;;;948509;149;27312;-76
2022/05/16 13:00:59;;;;;;;3.98;1.80;;;32.90;39.70;;;;;;949502;149;27433;-76
2022/05/16 13:03:38;;;;;;;1.77;1.40;;;32.80;39.60;;;;;;947878;149;27352;-76
2022/05/16 13:06:03;;;;;;;2.45;1.45;;;32.80;39.70;;;;;;950172;149;27236;-76
2022/05/16 13:08:33;;;;;;;3.52;1.60;;;32.70;39.60;;;;;;949245;149;27342;-76
2022/05/16 13:11:26;;;;;;;4.05;1.70;;;32.60;39.60;;;;;;949844;149;27319;-76
2022/05/16 13:13:58;;;;;;;1.60;1.37;;;32.50;39.70;;;;;;948269;149;27339;-76
2022/05/16 13:16:30;;;;;;;4.53;1.90;;;32.40;40.00;;;;;;948452;148;27425;-76
2022/05/16 13:19:00;;;;;;;4.67;2.20;;;32.30;40.10;;;;;;949023;146;27329;-76
2022/05/16 13:21:32;;;;;;;2.12;1.57;;;32.30;40.30;;;;;;948591;149;27355;-76
2022/05/16 13:23:59;;;;;;;3.35;1.70;;;32.10;40.30;;;;;;948767;149;27344;-76
2022/05/16 13:29:22;;;;;;;3.00;1.47;;;31.90;40.50;;;;;;951541;149;27303;-76
2022/05/16 13:31:54;;;;;;;4.03;1.35;;;31.80;40.60;;;;;;949637;149;27335;-76
2022/05/16 13:34:33;;;;;;;1.92;1.37;;;31.70;40.80;;;;;;949395;149;27347;-76
2022/05/16 13:36:59;;;;;;;4.92;1.65;;;31.50;41.10;;;;;;950745;149;27312;-76
2022/05/16 13:39:26;;;;;;;2.30;1.25;;;31.40;41.30;;;;;;948132;149;27312;-76